createdAt,value
2023-04-16T21:00:17.146Z,4.52
2023-04-16T21:02:44.722Z,4.47
2023-04-16T21:05:14.469Z,4.37
2023-04-16T21:07:42.339Z,4.47
2023-04-16T21:10:10.793Z,4.44
2023-04-16T21:12:39.434Z,4.38
2023-04-16T21:15:07.571Z,4.43
2023-04-16T21:17:34.847Z,4.31
2023-04-16T21:20:02.525Z,4.31
2023-04-16T21:22:30.075Z,4.36
2023-04-16T21:24:57.358Z,4.39
2023-04-16T21:27:24.697Z,4.41
2023-04-16T21:29:52.250Z,4.35
2023-04-16T21:32:19.592Z,4.27
2023-04-16T21:34:47.051Z,4.21
2023-04-16T21:37:14.300Z,4.20
2023-04-16T21:39:41.550Z,4.12
2023-04-16T21:42:08.842Z,4.04
2023-04-16T21:44:36.298Z,4.02
2023-04-16T21:47:03.819Z,4.10
2023-04-16T21:49:31.262Z,4.13
2023-04-16T21:52:20.644Z,4.12
2023-04-16T21:54:48.036Z,4.07
2023-04-16T21:57:15.270Z,3.96
2023-04-16T21:59:42.549Z,3.96
2023-04-16T22:02:09.959Z,4.03
2023-04-16T22:04:37.756Z,3.99
2023-04-16T22:07:09.239Z,4.04
2023-04-16T22:09:36.732Z,3.98
2023-04-16T22:12:07.126Z,3.95
2023-04-16T22:14:42.103Z,3.78
2023-04-16T22:17:15.201Z,3.66
2023-04-16T22:19:42.750Z,3.74
2023-04-16T22:22:10.158Z,3.86
2023-04-16T22:24:37.474Z,3.81
2023-04-16T22:27:04.781Z,3.84
2023-04-16T22:29:32.064Z,3.82
2023-04-16T22:32:00.992Z,3.84
2023-04-16T22:34:28.416Z,3.74
2023-04-16T22:36:56.569Z,3.77
2023-04-16T22:39:23.793Z,3.61
2023-04-16T22:41:51.868Z,3.72
2023-04-16T22:44:19.178Z,3.66
2023-04-16T22:46:47.178Z,3.61
2023-04-16T22:49:14.460Z,3.56
2023-04-16T22:51:41.928Z,3.55
2023-04-16T22:54:13.646Z,3.61
2023-04-16T22:56:41.564Z,3.61
2023-04-16T22:59:09.108Z,3.50
2023-04-16T23:01:36.852Z,3.49
2023-04-16T23:04:04.322Z,3.51
2023-04-16T23:06:31.886Z,3.66
2023-04-16T23:08:59.188Z,3.70
2023-04-16T23:11:26.397Z,3.68
2023-04-16T23:13:53.845Z,3.60
2023-04-16T23:16:21.248Z,3.53
2023-04-16T23:18:48.581Z,3.58
2023-04-16T23:21:15.925Z,3.46
2023-04-16T23:23:43.150Z,3.47
2023-04-16T23:26:10.592Z,3.53
2023-04-16T23:28:37.920Z,3.52
2023-04-16T23:31:07.139Z,3.41
2023-04-16T23:33:34.849Z,3.35
2023-04-16T23:36:02.178Z,3.34
2023-04-16T23:38:29.749Z,3.32
2023-04-16T23:40:57.085Z,3.31
2023-04-16T23:43:24.552Z,3.25
2023-04-16T23:45:51.873Z,3.28
2023-04-16T23:48:19.327Z,3.32
2023-04-16T23:50:46.858Z,3.28
2023-04-16T23:53:14.295Z,3.27
2023-04-16T23:55:41.666Z,3.28
2023-04-16T23:58:08.968Z,3.24
